Radar AviationWeather DUATS TFRs Wunderground Accuweather Weather.com

alt : Radar

TAFs

KJXN 272344Z 2800/2824 05009KT P6SM SCT060 SCT250
   FM281600 04011KT P6SM SCT060
KFWA 272339Z 2800/2824 01006KT P6SM SCT100
   FM280200 03005KT P6SM BKN060
   FM281200 03008KT P6SM SCT100
   FM281800 03012G17KT P6SM BKN040
KCLE 272337Z 2800/2906 03008KT P6SM SCT100
   FM281300 04010KT P6SM BKN035
   FM281800 04012G22KT P6SM BKN050
KTOL 272337Z 2800/2824 04006KT P6SM SCT100
   FM280900 03008KT P6SM BKN100
   FM281500 02010KT P6SM BKN030
   FM282000 03012KT P6SM BKN050
KFDY 272337Z 2800/2824 05008KT P6SM SCT040
   FM281000 03006KT 5SM BR BKN050
   FM281400 02008KT P6SM BKN025
   FM282000 03015G25KT P6SM BKN035
KDTW 272332Z 2800/2906 03007KT P6SM BKN060
   FM280100 03005KT P6SM SCT250
   FM280900 04004KT P6SM SCT025
   FM281500 01007KT P6SM SCT035
   FM282000 01010KT P6SM SKC

METARs

KDUH 280035Z AUTO 00000KT 10SM CLR 25/19 A2989 RMK AO2 T02460190
KJXN 272356Z 04008G16KT 10SM BKN060 26/19 A2992 RMK AO2 SLP125 T02610189 10306 20261 53005
KFWA 272354Z 05007KT 10SM FEW030 SCT120 27/22 A2987 RMK AO2 SLP110 60006 T02720217 10283 20239 55005
KDTW 272353Z 05012KT 10SM SCT030 BKN040 BKN075 26/19 A2991 RMK AO2 SLP123 T02610194 10311 20261 53005
KFDY 272353Z AUTO 10006KT 10SM CLR 27/19 A2987 RMK AO2 SLP106 T02670194 10294 20267 53002 TSNO
KTDZ 272353Z AUTO 07005KT 10SM CLR 27/19 A2989 RMK AO2 SLP117 T02670189 10289 20267 53003
KTOL 272352Z 09006KT 10SM CLR 26/18 A2988 RMK AO2 SLP115 T02610183 10294 20261 53002
KCLE 272351Z 03008KT 10SM FEW060 FEW110 27/18 A2990 RMK AO2 SLP120 CB DSNT SE T02670178 10306 20267 55001

alt : Satellite

alt : TFRs